Time;durP1;ratioP1;P1;durP2;ratioP2;P2;SDS_P1;SDS_P2;PMS_P1;PMS_P2;Temp;Humidity;BMP_temperature;BMP_pressure;BME280_temperature;BME280_humidity;BME280_pressure;Samples;Min_cycle;Max_cycle;Signal;HPM_P1;HPM_P2
2021/07/15 00:00:34;;;;;;;;;;;16.60;99.90;;;;;;5093695;28;19909;-67
2021/07/15 00:03:02;;;;;;;;;;;16.50;99.90;;;;;;5094024;28;19908;-67
2021/07/15 00:05:29;;;;;;;;;;;16.40;99.90;;;;;;5093890;28;19908;-67
2021/07/15 00:07:56;;;;;;;;;;;16.50;99.90;;;;;;5093808;28;19950;-67
2021/07/15 00:10:27;;;;;;;;;;;16.60;99.90;;;;;;5093926;28;19924;-67
2021/07/15 00:12:54;;;;;;;;;;;16.60;99.90;;;;;;5093519;28;19922;-68
2021/07/15 00:15:22;;;;;;;;;;;16.50;99.90;;;;;;5093488;28;19908;-67
2021/07/15 00:17:49;;;;;;;;;;;16.60;99.90;;;;;;5093406;28;19959;-68
2021/07/15 00:20:17;;;;;;;;;;;16.60;99.90;;;;;;5093303;28;19908;-68
2021/07/15 00:22:45;;;;;;;;;;;16.60;99.90;;;;;;5092977;28;19992;-68
2021/07/15 00:25:13;;;;;;;;;;;16.80;99.90;;;;;;5093221;28;20003;-67
2021/07/15 00:27:40;;;;;;;;;;;17.10;99.90;;;;;;5092765;28;20345;-67
2021/07/15 00:30:07;;;;;;;;;;;17.00;99.90;;;;;;5093043;28;19985;-68
2021/07/15 00:32:33;;;;;;;;;;;17.00;99.90;;;;;;5092962;28;20398;-69
2021/07/15 00:35:01;;;;;;;;;;;17.10;99.90;;;;;;5093004;28;19908;-67
2021/07/15 00:37:28;;;;;;;;;;;17.30;99.90;;;;;;5125385;27;19908;-68
2021/07/15 00:39:55;;;;;;;;;;;17.30;99.90;;;;;;5092928;28;19909;-69
2021/07/15 00:42:22;;;;;;;;;;;17.40;99.90;;;;;;5092759;28;20041;-67
2021/07/15 00:44:48;;;;;;;;;;;17.60;99.90;;;;;;5092695;28;19920;-67
2021/07/15 00:47:15;;;;;;;;;;;17.50;99.90;;;;;;5092795;28;19993;-68
2021/07/15 00:49:42;;;;;;;;;;;17.50;99.90;;;;;;5092470;28;19912;-67
2021/07/15 00:52:11;;;;;;;;;;;17.50;99.90;;;;;;5092721;28;19918;-69
2021/07/15 00:54:42;;;;;;;;;;;17.40;99.90;;;;;;5092861;28;19916;-68
2021/07/15 00:57:09;;;;;;;;;;;17.40;99.90;;;;;;5092577;28;20367;-67
2021/07/15 00:59:37;;;;;;;;;;;17.60;99.90;;;;;;5091897;28;20007;-67
2021/07/15 01:02:07;;;;;;;;;;;17.50;99.90;;;;;;5124475;27;19916;-68
2021/07/15 01:04:35;;;;;;;;;;;17.60;99.90;;;;;;5092492;28;20268;-67
2021/07/15 01:07:02;;;;;;;;;;;17.90;99.90;;;;;;5092600;28;19912;-67
2021/07/15 01:09:29;;;;;;;;;;;18.10;99.90;;;;;;5092542;28;19914;-68
2021/07/15 01:12:14;;;;;;;;;;;18.30;99.90;;;;;;5092320;28;19970;-67
2021/07/15 01:14:59;;;;;;;;;;;19.30;99.90;;;;;;5092382;28;19912;-68
2021/07/15 01:17:28;;;;;;;;;;;19.70;99.90;;;;;;5092225;28;20280;-68
2021/07/15 01:20:27;;;;;;;;;;;19.70;99.90;;;;;;5092303;28;19912;-68
2021/07/15 01:23:13;;;;;;;;;;;19.60;99.90;;;;;;5092402;28;19931;-69
2021/07/15 01:25:39;;;;;;;;;;;19.80;99.90;;;;;;5092042;28;20297;-68
2021/07/15 01:28:19;;;;;;;;;;;20.10;99.90;;;;;;5092222;28;19908;-67
2021/07/15 01:30:46;;;;;;;;;;;19.80;99.90;;;;;;5092131;28;19939;-67
2021/07/15 01:33:23;;;;;;;;;;;19.60;99.90;;;;;;5092402;28;20297;-67
2021/07/15 01:35:52;;;;;;;;;;;19.20;99.90;;;;;;5092616;28;19985;-68
2021/07/15 01:38:22;;;;;;;;;;;18.90;99.90;;;;;;5092277;28;19926;-66
2021/07/15 01:40:54;;;;;;;;;;;18.90;99.90;;;;;;5092393;28;19951;-67
2021/07/15 01:43:23;;;;;;;;;;;18.80;99.90;;;;;;5092131;28;20050;-67
2021/07/15 01:45:50;;;;;;;;;;;18.70;99.90;;;;;;5092006;28;19916;-67
2021/07/15 01:48:16;;;;;;;;;;;18.70;99.90;;;;;;5092337;28;19961;-68
2021/07/15 01:50:44;;;;;;;;;;;18.60;99.90;;;;;;5092176;28;19982;-68
2021/07/15 01:53:11;;;;;;;;;;;18.70;99.90;;;;;;5091903;28;19908;-68
2021/07/15 01:55:38;;;;;;;;;;;18.60;99.90;;;;;;5092156;28;20271;-68
2021/07/15 01:58:07;;;;;;;;;;;18.50;99.90;;;;;;5092405;28;19962;-68
2021/07/15 02:00:34;;;;;;;;;;;18.60;99.90;;;;;;5092107;28;19908;-68
2021/07/15 02:03:02;;;;;;;;;;;18.40;99.90;;;;;;5091964;28;19908;-68
2021/07/15 02:05:29;;;;;;;;;;;18.30;99.90;;;;;;5092020;28;19915;-68
2021/07/15 02:07:56;;;;;;;;;;;18.60;99.90;;;;;;5092060;28;20428;-68
2021/07/15 02:10:24;;;;;;;;;;;18.70;99.90;;;;;;5092928;28;19916;-68
2021/07/15 02:12:51;;;;;;;;;;;18.90;99.90;;;;;;5095527;28;19920;-68
2021/07/15 02:15:18;;;;;;;;;;;19.10;99.90;;;;;;5095810;28;19908;-68
2021/07/15 02:17:45;;;;;;;;;;;19.10;99.90;;;;;;5095582;28;19908;-68
2021/07/15 02:20:13;;;;;;;;;;;19.00;99.90;;;;;;5097031;28;19909;-68
2021/07/15 02:22:40;;;;;;;;;;;18.80;99.90;;;;;;5095590;28;19908;-67
2021/07/15 02:25:08;;;;;;;;;;;18.70;99.90;;;;;;5095339;28;19912;-67
2021/07/15 02:27:35;;;;;;;;;;;18.70;99.90;;;;;;5094925;28;19978;-67
2021/07/15 02:30:04;;;;;;;;;;;18.80;99.90;;;;;;5095199;28;19916;-67
2021/07/15 02:32:31;;;;;;;;;;;18.60;99.90;;;;;;5095072;28;19997;-67
2021/07/15 02:35:01;;;;;;;;;;;18.80;99.90;;;;;;5095031;28;19909;-67
2021/07/15 02:37:32;;;;;;;;;;;18.80;99.90;;;;;;5095113;28;19908;-67
2021/07/15 02:39:59;;;;;;;;;;;18.70;99.90;;;;;;5095158;28;19915;-67
2021/07/15 02:42:28;;;;;;;;;;;18.70;99.90;;;;;;5094901;28;19914;-68
2021/07/15 02:44:55;;;;;;;;;;;18.60;99.90;;;;;;5094576;28;20378;-67
2021/07/15 02:47:21;;;;;;;;;;;18.60;99.90;;;;;;5095075;28;19943;-67
2021/07/15 02:49:48;;;;;;;;;;;18.50;99.90;;;;;;5094797;28;20274;-67
2021/07/15 02:52:16;;;;;;;;;;;18.40;99.90;;;;;;5094884;28;19962;-67
2021/07/15 02:54:43;;;;;;;;;;;18.50;99.90;;;;;;5094938;28;19935;-67
2021/07/15 02:57:22;;;;;;;;;;;18.40;99.90;;;;;;5094467;28;19912;-68
2021/07/15 02:59:55;;;;;;;;;;;18.40;99.90;;;;;;5094753;28;19916;-68
2021/07/15 03:02:25;;;;;;;;;;;18.50;99.90;;;;;;5094735;28;19908;-68
2021/07/15 03:05:05;;;;;;;;;;;18.80;99.90;;;;;;5094912;28;19915;-67
2021/07/15 03:07:32;;;;;;;;;;;19.10;99.90;;;;;;5094505;28;20367;-68
2021/07/15 03:10:00;;;;;;;;;;;19.30;99.90;;;;;;5094513;28;19916;-67
2021/07/15 03:12:27;;;;;;;;;;;19.30;99.90;;;;;;5094510;28;20354;-66
2021/07/15 03:14:55;;;;;;;;;;;19.30;99.90;;;;;;5094812;28;20259;-68
2021/07/15 03:17:26;;;;;;;;;;;19.20;99.90;;;;;;5094575;28;19944;-67
2021/07/15 03:19:53;;;;;;;;;;;19.30;99.90;;;;;;5094305;28;20385;-67
2021/07/15 03:22:23;;;;;;;;;;;19.10;99.90;;;;;;5093811;28;19915;-66
2021/07/15 03:24:56;;;;;;;;;;;19.20;99.90;;;;;;5094357;28;19958;-67
2021/07/15 03:27:24;;;;;;;;;;;19.20;99.90;;;;;;5093983;28;19908;-68
2021/07/15 03:29:50;;;;;;;;;;;19.20;99.90;;;;;;5094037;28;19958;-67
2021/07/15 03:32:18;;;;;;;;;;;19.30;99.90;;;;;;5094343;28;19915;-68
2021/07/15 03:34:45;;;;;;;;;;;19.20;99.90;;;;;;5092755;28;19908;-68
2021/07/15 03:37:12;;;;;;;;;;;19.20;99.90;;;;;;5094001;28;19915;-67
2021/07/15 03:39:39;;;;;;;;;;;19.30;99.90;;;;;;5093630;28;20363;-68
2021/07/15 03:42:06;;;;;;;;;;;19.40;99.90;;;;;;5093686;28;19908;-68
2021/07/15 03:44:33;;;;;;;;;;;19.40;99.90;;;;;;5093638;28;19927;-68
2021/07/15 03:47:00;;;;;;;;;;;19.50;99.90;;;;;;5093804;28;19957;-69
2021/07/15 03:49:28;;;;;;;;;;;19.40;99.90;;;;;;5093788;28;19922;-69
2021/07/15 03:51:55;;;;;;;;;;;19.40;99.90;;;;;;5093684;28;19962;-68
2021/07/15 03:54:23;;;;;;;;;;;19.30;99.90;;;;;;5093847;28;19915;-68
2021/07/15 03:56:50;;;;;;;;;;;19.30;99.90;;;;;;5093759;28;19919;-69
2021/07/15 03:59:18;;;;;;;;;;;19.20;99.90;;;;;;5093844;28;19908;-68
2021/07/15 04:01:47;;;;;;;;;;;19.20;99.90;;;;;;5093533;28;19915;-69
2021/07/15 04:04:14;;;;;;;;;;;19.30;99.90;;;;;;5093491;28;19953;-68
2021/07/15 04:06:43;;;;;;;;;;;19.30;99.90;;;;;;5093452;28;19915;-68
2021/07/15 04:09:12;;;;;;;;;;;19.30;99.90;;;;;;5093416;28;19912;-68
2021/07/15 04:11:42;;;;;;;;;;;19.30;99.90;;;;;;5092880;28;19916;-67
2021/07/15 04:14:12;;;;;;;;;;;19.30;99.90;;;;;;5093154;28;20010;-67
2021/07/15 04:16:39;;;;;;;;;;;19.30;99.90;;;;;;5093121;28;19919;-68
2021/07/15 04:19:06;;;;;;;;;;;19.30;99.90;;;;;;5093474;28;20367;-67
2021/07/15 04:21:34;;;;;;;;;;;19.40;99.90;;;;;;5093133;28;20350;-67
2021/07/15 04:24:01;;;;;;;;;;;19.50;99.90;;;;;;5093131;28;19908;-68
2021/07/15 04:26:28;;;;;;;;;;;19.50;99.90;;;;;;5093113;28;20298;-67
2021/07/15 04:28:55;;;;;;;;;;;19.50;99.90;;;;;;5092835;28;19923;-68
2021/07/15 04:31:21;;;;;;;;;;;19.40;99.90;;;;;;5092955;28;19916;-69
2021/07/15 04:33:48;;;;;;;;;;;19.30;99.90;;;;;;5092152;28;19908;-68
2021/07/15 04:36:16;;;;;;;;;;;19.30;99.90;;;;;;5125793;27;19931;-68
2021/07/15 04:38:43;;;;;;;;;;;19.30;99.90;;;;;;5093138;28;19953;-68
2021/07/15 04:41:10;;;;;;;;;;;19.30;99.90;;;;;;5092884;28;20354;-68
2021/07/15 04:43:38;;;;;;;;;;;19.40;99.90;;;;;;5092504;28;19919;-68
2021/07/15 04:46:06;;;;;;;;;;;19.40;99.90;;;;;;5092827;28;19970;-67
2021/07/15 04:48:32;;;;;;;;;;;19.40;99.90;;;;;;5092846;28;19994;-68
2021/07/15 04:51:00;;;;;;;;;;;19.30;99.90;;;;;;5092587;28;19920;-67
2021/07/15 04:53:26;;;;;;;;;;;19.20;99.90;;;;;;5092609;28;19943;-68
2021/07/15 04:55:56;;;;;;;;;;;19.10;99.90;;;;;;5092492;28;19915;-68
2021/07/15 04:58:23;;;;;;;;;;;19.20;99.90;;;;;;5092656;28;19947;-67
2021/07/15 05:00:50;;;;;;;;;;;19.30;99.90;;;;;;5092717;28;19908;-68
2021/07/15 05:03:20;;;;;;;;;;;19.20;99.90;;;;;;5092619;28;19909;-67
2021/07/15 05:05:46;;;;;;;;;;;19.00;99.90;;;;;;5092384;28;19915;-68
2021/07/15 05:08:13;;;;;;;;;;;18.90;99.90;;;;;;5092731;28;20010;-68
2021/07/15 05:10:41;;;;;;;;;;;18.80;99.90;;;;;;5092221;28;19920;-68
2021/07/15 05:13:08;;;;;;;;;;;18.70;99.90;;;;;;5092514;28;19912;-67
2021/07/15 05:15:35;;;;;;;;;;;18.50;99.90;;;;;;5092324;28;19908;-67
2021/07/15 05:18:01;;;;;;;;;;;18.60;99.90;;;;;;5092507;28;19908;-67
2021/07/15 05:20:28;;;;;;;;;;;18.90;99.90;;;;;;5092447;28;19916;-67
2021/07/15 05:22:55;;;;;;;;;;;18.90;99.90;;;;;;5092360;28;19944;-67
2021/07/15 05:25:21;;;;;;;;;;;18.90;99.90;;;;;;5092222;28;19912;-67
2021/07/15 05:27:50;;;;;;;;;;;18.80;99.90;;;;;;5092210;28;20007;-68
2021/07/15 05:30:17;;;;;;;;;;;18.90;99.90;;;;;;5093568;28;19912;-68
2021/07/15 05:32:45;;;;;;;;;;;19.00;99.90;;;;;;5093999;28;19943;-68
2021/07/15 05:35:14;;;;;;;;;;;19.00;99.90;;;;;;5126727;28;19961;-68
2021/07/15 05:37:42;;;;;;;;;;;18.90;99.90;;;;;;5124854;28;19942;-69
2021/07/15 05:40:09;;;;;;;;;;;18.90;99.90;;;;;;5092033;28;19915;-67
2021/07/15 05:42:39;;;;;;;;;;;18.80;99.90;;;;;;5092074;28;19965;-66
2021/07/15 05:45:08;;;;;;;;;;;18.70;99.90;;;;;;5092845;28;19916;-67
2021/07/15 05:47:35;;;;;;;;;;;18.70;99.90;;;;;;5095983;28;19961;-68
2021/07/15 05:50:02;;;;;;;;;;;18.50;99.90;;;;;;5095877;28;19912;-68
2021/07/15 05:52:33;;;;;;;;;;;18.40;99.90;;;;;;5096078;28;19912;-68
2021/07/15 05:54:59;;;;;;;;;;;18.40;99.90;;;;;;5096010;28;19915;-68
2021/07/15 05:57:26;;;;;;;;;;;18.40;99.90;;;;;;5096033;28;19915;-68
2021/07/15 05:59:53;;;;;;;;;;;18.40;99.90;;;;;;5095754;28;19939;-67
2021/07/15 06:02:19;;;;;;;;;;;18.50;99.90;;;;;;5095967;28;19912;-67
2021/07/15 06:04:46;;;;;;;;;;;18.50;99.90;;;;;;5095601;28;20007;-67
2021/07/15 06:07:13;;;;;;;;;;;18.50;99.90;;;;;;5095823;28;19911;-68
2021/07/15 06:09:39;;;;;;;;;;;18.50;99.90;;;;;;5095481;28;19912;-68
2021/07/15 06:12:06;;;;;;;;;;;18.40;99.90;;;;;;5095536;28;19912;-68
2021/07/15 06:14:33;;;;;;;;;;;18.50;99.90;;;;;;5095635;28;19909;-68
2021/07/15 06:17:00;;;;;;;;;;;18.50;99.90;;;;;;5095465;28;19999;-68
2021/07/15 06:19:26;;;;;;;;;;;18.40;99.90;;;;;;5095901;28;19908;-68
2021/07/15 06:21:53;;;;;;;;;;;18.40;99.90;;;;;;5095577;28;19998;-67
2021/07/15 06:24:19;;;;;;;;;;;18.50;99.90;;;;;;5095538;28;19916;-68
2021/07/15 06:26:48;;;;;;;;;;;18.40;99.90;;;;;;5095330;28;19940;-68
2021/07/15 06:29:15;;;;;;;;;;;18.40;99.90;;;;;;5095247;28;19908;-68
2021/07/15 06:31:42;;;;;;;;;;;18.30;99.90;;;;;;5094827;28;19916;-67
2021/07/15 06:34:10;;;;;;;;;;;18.20;99.90;;;;;;5095224;28;19934;-68
2021/07/15 06:36:37;;;;;;;;;;;18.10;99.90;;;;;;5095167;28;20007;-67
2021/07/15 06:39:04;;;;;;;;;;;18.10;99.90;;;;;;5095050;28;20369;-68
2021/07/15 06:41:30;;;;;;;;;;;18.10;99.90;;;;;;5079051;28;19951;-67
2021/07/15 06:43:57;;;;;;;;;;;18.10;99.90;;;;;;5074548;28;19949;-67
2021/07/15 06:46:26;;;;;;;;;;;18.10;99.90;;;;;;5074678;28;19915;-67
2021/07/15 06:48:52;;;;;;;;;;;18.00;99.90;;;;;;5074138;28;20373;-67
2021/07/15 06:51:19;;;;;;;;;;;18.20;99.90;;;;;;5074394;28;19920;-67
2021/07/15 06:53:49;;;;;;;;;;;18.20;99.90;;;;;;5074412;28;19908;-68
2021/07/15 06:56:15;;;;;;;;;;;18.20;99.90;;;;;;5074314;28;19942;-67
2021/07/15 06:58:42;;;;;;;;;;;18.10;99.90;;;;;;5073794;28;19977;-67
2021/07/15 07:01:09;;;;;;;;;;;17.90;99.90;;;;;;5074461;28;19908;-67
2021/07/15 07:03:36;;;;;;;;;;;17.80;99.90;;;;;;5074513;28;19908;-67
2021/07/15 07:06:03;;;;;;;;;;;17.70;99.90;;;;;;5074559;28;19951;-67
2021/07/15 07:08:30;;;;;;;;;;;17.60;99.90;;;;;;5073895;28;20297;-68
2021/07/15 07:10:57;;;;;;;;;;;17.50;99.90;;;;;;5072458;28;19927;-67
2021/07/15 07:13:23;;;;;;;;;;;17.40;99.90;;;;;;5072777;28;19931;-68
2021/07/15 07:15:50;;;;;;;;;;;17.40;99.90;;;;;;5073693;28;20353;-68
2021/07/15 07:18:17;;;;;;;;;;;17.30;99.90;;;;;;5074242;28;20389;-68
2021/07/15 07:20:43;;;;;;;;;;;17.20;99.90;;;;;;5074154;28;20378;-67
2021/07/15 07:23:13;;;;;;;;;;;17.20;99.90;;;;;;5074234;28;19915;-67
2021/07/15 07:25:40;;;;;;;;;;;17.10;99.90;;;;;;5073721;28;19999;-67
2021/07/15 07:28:07;;;;;;;;;;;17.00;99.90;;;;;;5074215;28;19913;-68
2021/07/15 07:30:34;;;;;;;;;;;16.90;99.90;;;;;;5073853;28;19948;-68
2021/07/15 07:33:01;;;;;;;;;;;16.90;99.90;;;;;;5073965;28;19912;-67
2021/07/15 07:35:27;;;;;;;;;;;16.80;99.90;;;;;;5073837;28;19908;-68
2021/07/15 07:37:54;;;;;;;;;;;16.80;99.90;;;;;;5073610;28;19934;-67
2021/07/15 07:40:21;;;;;;;;;;;16.80;99.90;;;;;;5072086;28;20037;-68
2021/07/15 07:42:48;;;;;;;;;;;16.70;99.90;;;;;;5071442;28;19908;-68
2021/07/15 07:45:15;;;;;;;;;;;16.70;99.90;;;;;;5071487;28;19909;-68
2021/07/15 07:47:42;;;;;;;;;;;16.70;99.90;;;;;;5070141;28;19908;-68
2021/07/15 07:50:10;;;;;;;;;;;16.60;99.90;;;;;;5071493;28;19967;-67
2021/07/15 07:52:37;;;;;;;;;;;16.60;99.90;;;;;;5071405;28;19930;-67
2021/07/15 07:55:07;;;;;;;;;;;16.50;99.90;;;;;;5070880;28;19916;-67
2021/07/15 07:57:34;;;;;;;;;;;16.50;99.90;;;;;;5071316;28;19908;-68
2021/07/15 08:00:05;;;;;;;;;;;16.50;99.90;;;;;;5071560;28;19909;-68
2021/07/15 08:02:33;;;;;;;;;;;16.40;99.90;;;;;;5071481;28;20011;-68
2021/07/15 08:05:03;;;;;;;;;;;16.40;99.90;;;;;;5071456;28;19927;-68
2021/07/15 08:07:30;;;;;;;;;;;16.40;99.90;;;;;;5070918;28;19919;-67
2021/07/15 08:09:57;;;;;;;;;;;16.30;99.90;;;;;;5071071;28;19912;-69
2021/07/15 08:12:23;;;;;;;;;;;16.40;99.90;;;;;;5103506;28;20275;-67
2021/07/15 08:14:50;;;;;;;;;;;16.30;99.90;;;;;;5070996;28;19915;-67
2021/07/15 08:17:17;;;;;;;;;;;16.30;99.90;;;;;;5070966;28;20057;-66
2021/07/15 08:19:43;;;;;;;;;;;16.20;99.90;;;;;;5070143;28;20346;-66
2021/07/15 08:22:13;;;;;;;;;;;16.20;99.90;;;;;;5070825;28;20013;-68
2021/07/15 08:24:39;;;;;;;;;;;16.10;99.90;;;;;;5070624;28;19916;-67
2021/07/15 08:27:06;;;;;;;;;;;16.00;99.90;;;;;;5070869;28;19919;-69
2021/07/15 08:29:33;;;;;;;;;;;16.00;99.90;;;;;;5070733;28;20247;-67
2021/07/15 08:31:59;;;;;;;;;;;16.00;99.90;;;;;;5070612;28;19920;-67
2021/07/15 08:34:27;;;;;;;;;;;16.00;99.90;;;;;;5070403;28;19913;-68
2021/07/15 08:36:54;;;;;;;;;;;16.00;99.90;;;;;;5070512;28;19935;-68
2021/07/15 08:39:20;;;;;;;;;;;16.00;99.90;;;;;;5070698;28;19962;-68
2021/07/15 08:41:48;;;;;;;;;;;16.00;99.90;;;;;;5070763;28;19983;-68
2021/07/15 08:44:16;;;;;;;;;;;16.00;99.90;;;;;;5070307;28;20509;-68
2021/07/15 08:46:48;;;;;;;;;;;15.90;99.90;;;;;;5070394;28;19909;-68
2021/07/15 08:49:19;;;;;;;;;;;15.90;99.90;;;;;;5070442;28;19951;-67
2021/07/15 08:51:46;;;;;;;;;;;15.90;99.90;;;;;;5070097;28;19927;-68
2021/07/15 08:54:14;;;;;;;;;;;15.80;99.90;;;;;;5070247;28;19916;-67
2021/07/15 08:56:43;;;;;;;;;;;15.80;99.90;;;;;;5070419;28;19995;-66
2021/07/15 08:59:19;;;;;;;;;;;15.70;99.90;;;;;;5070162;28;20367;-66
2021/07/15 09:01:47;;;;;;;;;;;15.70;99.90;;;;;;5070394;28;20382;-67
2021/07/15 09:04:14;;;;;;;;;;;15.70;99.90;;;;;;5070192;28;20319;-67
2021/07/15 09:06:44;;;;;;;;;;;15.70;99.90;;;;;;5072447;28;19914;-68
2021/07/15 09:09:11;;;;;;;;;;;15.70;99.90;;;;;;5072111;28;19935;-68
2021/07/15 09:11:39;;;;;;;;;;;15.70;99.90;;;;;;5072027;28;19938;-68
2021/07/15 09:14:16;;;;;;;;;;;15.70;99.90;;;;;;5072485;28;19909;-68
2021/07/15 09:16:50;;;;;;;;;;;15.60;99.90;;;;;;5072349;28;19916;-68
2021/07/15 09:19:19;;;;;;;;;;;15.60;99.90;;;;;;5072347;28;19908;-68
2021/07/15 09:21:46;;;;;;;;;;;15.60;99.90;;;;;;5075270;28;19909;-67
2021/07/15 09:24:32;;;;;;;;;;;15.70;99.90;;;;;;5076464;28;19909;-68
2021/07/15 09:26:59;;;;;;;;;;;15.60;99.90;;;;;;5076360;28;19954;-68
2021/07/15 09:29:26;;;;;;;;;;;15.70;99.90;;;;;;5076218;28;19909;-68
2021/07/15 09:31:54;;;;;;;;;;;15.60;99.90;;;;;;5108521;28;19917;-68
2021/07/15 09:34:24;;;;;;;;;;;15.70;99.90;;;;;;5075629;28;19908;-68
2021/07/15 09:36:53;;;;;;;;;;;15.70;99.90;;;;;;5076055;28;19908;-67
2021/07/15 09:39:28;;;;;;;;;;;15.80;99.90;;;;;;5075750;28;19912;-69
2021/07/15 09:42:19;;;;;;;;;;;15.80;99.90;;;;;;5076065;28;19913;-68
2021/07/15 09:44:50;;;;;;;;;;;15.70;99.90;;;;;;5075951;28;19965;-68
2021/07/15 09:47:39;;;;;;;;;;;15.70;99.90;;;;;;5076056;28;19934;-67
2021/07/15 09:50:17;;;;;;;;;;;15.60;99.90;;;;;;5075607;28;19987;-67
2021/07/15 09:52:44;;;;;;;;;;;15.60;99.90;;;;;;5076125;28;19913;-66
2021/07/15 09:55:24;;;;;;;;;;;15.50;99.90;;;;;;5075717;28;19915;-67
2021/07/15 09:58:10;;;;;;;;;;;15.50;99.90;;;;;;5075591;28;19916;-67
2021/07/15 10:00:37;;;;;;;;;;;15.50;99.90;;;;;;5075556;28;20438;-68
2021/07/15 10:03:09;;;;;;;;;;;15.40;99.90;;;;;;5075056;28;19955;-68
2021/07/15 10:05:36;;;;;;;;;;;15.40;99.90;;;;;;5108021;28;20394;-68
2021/07/15 10:08:03;;;;;;;;;;;15.40;99.90;;;;;;5075456;28;19909;-68
2021/07/15 10:10:31;;;;;;;;;;;15.40;99.90;;;;;;5075124;28;20358;-69
2021/07/15 10:13:15;;;;;;;;;;;15.50;99.90;;;;;;5108193;28;19916;-67
2021/07/15 10:15:42;;;;;;;;;;;15.40;99.90;;;;;;5075236;28;20350;-67
2021/07/15 10:18:09;;;;;;;;;;;15.50;99.90;;;;;;5074805;28;19908;-67
2021/07/15 10:20:36;;;;;;;;;;;15.50;99.90;;;;;;5075529;28;19939;-68
2021/07/15 10:23:03;;;;;;;;;;;15.60;99.90;;;;;;5075255;28;19915;-70
2021/07/15 10:25:30;;;;;;;;;;;15.60;99.90;;;;;;5075113;28;19954;-66
2021/07/15 10:27:57;;;;;;;;;;;15.70;99.90;;;;;;5075132;28;19909;-68
2021/07/15 10:30:28;;;;;;;;;;;15.70;99.90;;;;;;5075065;28;19913;-68
2021/07/15 10:32:55;;;;;;;;;;;15.70;99.90;;;;;;5073067;28;19912;-68
2021/07/15 10:35:25;;;;;;;;;;;15.70;99.90;;;;;;5075187;28;19909;-68
2021/07/15 10:37:55;;;;;;;;;;;15.80;99.90;;;;;;5072163;28;19913;-68
2021/07/15 10:40:22;;;;;;;;;;;15.80;99.90;;;;;;5071364;28;19909;-68
2021/07/15 10:42:48;;;;;;;;;;;15.80;99.90;;;;;;5072756;28;19912;-68
2021/07/15 10:45:15;;;;;;;;;;;15.70;99.90;;;;;;5071408;28;20374;-67
2021/07/15 10:47:42;;;;;;;;;;;15.70;99.90;;;;;;5072122;28;19912;-68
2021/07/15 10:50:09;;;;;;;;;;;15.80;99.90;;;;;;5072316;28;19958;-68
2021/07/15 10:52:37;;;;;;;;;;;15.70;99.90;;;;;;5072800;28;19917;-69
2021/07/15 10:55:04;;;;;;;;;;;15.70;99.90;;;;;;5072361;28;19970;-68
2021/07/15 10:57:30;;;;;;;;;;;15.70;99.90;;;;;;5072463;28;19912;-69
2021/07/15 11:00:15;;;;;;;;;;;15.80;99.90;;;;;;5072608;28;19912;-68
2021/07/15 11:02:42;;;;;;;;;;;15.80;99.90;;;;;;5071737;28;19915;-68
2021/07/15 11:05:23;;;;;;;;;;;15.90;99.90;;;;;;5072374;28;19908;-67
2021/07/15 11:07:50;;;;;;;;;;;15.90;99.90;;;;;;5072169;28;19927;-68
2021/07/15 11:10:21;;;;;;;;;;;16.00;99.90;;;;;;5072325;28;19966;-68
2021/07/15 11:12:56;;;;;;;;;;;16.00;99.90;;;;;;5072320;28;19948;-68
2021/07/15 11:15:22;;;;;;;;;;;16.00;99.90;;;;;;5071507;28;19915;-67
2021/07/15 11:17:51;;;;;;;;;;;16.00;99.90;;;;;;5070726;28;19983;-67
2021/07/15 11:20:24;;;;;;;;;;;16.10;99.90;;;;;;5072130;28;20347;-67
2021/07/15 11:22:51;;;;;;;;;;;16.10;99.90;;;;;;5071920;28;19908;-67
2021/07/15 11:25:35;;;;;;;;;;;16.00;99.90;;;;;;5104339;28;19931;-68
2021/07/15 11:28:11;;;;;;;;;;;16.00;99.90;;;;;;5071986;28;19923;-69
2021/07/15 11:30:37;;;;;;;;;;;15.90;99.90;;;;;;5071222;28;19928;-67
2021/07/15 11:33:22;;;;;;;;;;;15.90;99.90;;;;;;5071145;28;20453;-67
2021/07/15 11:35:52;;;;;;;;;;;15.90;99.90;;;;;;5071710;28;20370;-66
2021/07/15 11:38:23;;;;;;;;;;;15.80;99.90;;;;;;5071607;28;19936;-67
2021/07/15 11:40:51;;;;;;;;;;;15.80;99.90;;;;;;5071589;28;20358;-66
2021/07/15 11:43:17;;;;;;;;;;;15.70;99.90;;;;;;5069222;28;19935;-67
2021/07/15 11:46:02;;;;;;;;;;;15.60;99.90;;;;;;5071126;28;20457;-66
2021/07/15 11:48:47;;;;;;;;;;;15.60;99.90;;;;;;5070897;28;20278;-67
2021/07/15 11:51:25;;;;;;;;;;;15.60;99.90;;;;;;5071447;28;19950;-67
2021/07/15 11:54:10;;;;;;;;;;;15.50;99.90;;;;;;5071121;28;19961;-68
2021/07/15 11:56:37;;;;;;;;;;;15.40;99.90;;;;;;5071040;28;19915;-67
2021/07/15 11:59:03;;;;;;;;;;;15.40;99.90;;;;;;5070904;28;19909;-67
2021/07/15 12:01:34;;;;;;;;;;;15.40;99.90;;;;;;5070908;28;19912;-67
2021/07/15 12:04:05;;;;;;;;;;;15.30;99.90;;;;;;5070985;28;19909;-67
2021/07/15 12:06:32;;;;;;;;;;;15.30;99.90;;;;;;5071010;28;20020;-67
2021/07/15 12:09:08;;;;;;;;;;;15.20;99.90;;;;;;5070560;28;19942;-67
2021/07/15 12:11:36;;;;;;;;;;;15.20;99.90;;;;;;5070594;28;20394;-67
2021/07/15 12:14:03;;;;;;;;;;;15.10;99.90;;;;;;5070847;28;19908;-67
2021/07/15 12:16:31;;;;;;;;;;;15.10;99.90;;;;;;5070666;28;19920;-67
2021/07/15 12:19:02;;;;;;;;;;;15.00;99.90;;;;;;5071054;28;19916;-67
2021/07/15 12:21:30;;;;;;;;;;;15.10;99.90;;;;;;5070750;28;20268;-67
2021/07/15 12:23:57;;;;;;;;;;;15.00;99.90;;;;;;5069362;28;19908;-67
2021/07/15 12:26:24;;;;;;;;;;;15.10;99.90;;;;;;5070750;28;19912;-67
2021/07/15 12:28:51;;;;;;;;;;;15.10;99.90;;;;;;5070797;28;19909;-67
2021/07/15 12:31:19;;;;;;;;;;;15.10;99.90;;;;;;5070676;28;19931;-66
2021/07/15 12:33:53;;;;;;;;;;;15.10;99.90;;;;;;5069995;28;20001;-66
2021/07/15 12:36:24;;;;;;;;;;;15.10;99.90;;;;;;5070609;28;19923;-67
2021/07/15 12:38:52;;;;;;;;;;;15.10;99.90;;;;;;5070451;28;19912;-66
2021/07/15 12:41:22;;;;;;;;;;;15.00;99.90;;;;;;5070428;28;19927;-67
2021/07/15 12:43:51;;;;;;;;;;;15.00;99.90;;;;;;5102483;28;20049;-66
2021/07/15 12:46:19;;;;;;;;;;;14.90;99.90;;;;;;5070471;28;19917;-67
2021/07/15 12:48:47;;;;;;;;;;;14.80;99.90;;;;;;5069556;28;19914;-66
2021/07/15 12:51:14;;;;;;;;;;;14.90;99.90;;;;;;5070336;28;19917;-67
2021/07/15 12:53:44;;;;;;;;;;;14.90;99.90;;;;;;5069821;28;19926;-67
2021/07/15 12:56:12;;;;;;;;;;;14.90;99.90;;;;;;5069461;28;19916;-67
2021/07/15 12:58:39;;;;;;;;;;;14.90;99.90;;;;;;5070246;28;19958;-68
2021/07/15 13:01:06;;;;;;;;;;;15.00;99.90;;;;;;5070170;28;19970;-67
2021/07/15 13:03:33;;;;;;;;;;;15.00;99.90;;;;;;5069566;28;19913;-66
2021/07/15 13:06:00;;;;;;;;;;;15.00;99.90;;;;;;5070463;28;19931;-66
2021/07/15 13:09:04;;;;;;;;;;;15.00;99.90;;;;;;5070085;28;20298;-67
2021/07/15 13:14:17;;;;;;;;;;;15.10;99.90;;;;;;5070502;28;20331;-66
2021/07/15 13:16:53;;;;;;;;;;;15.10;99.90;;;;;;5070314;28;19909;-66
2021/07/15 13:19:22;;;;;;;;;;;15.20;99.90;;;;;;5070403;28;19912;-67
2021/07/15 13:21:49;;;;;;;;;;;15.20;99.90;;;;;;5069898;28;19909;-66
2021/07/15 13:24:18;;;;;;;;;;;15.30;99.90;;;;;;5070024;28;19909;-66
2021/07/15 13:26:56;;;;;;;;;;;15.30;99.90;;;;;;5070142;28;19923;-67
2021/07/15 13:29:29;;;;;;;;;;;15.20;99.90;;;;;;5070309;28;19908;-66
2021/07/15 13:31:56;;;;;;;;;;;15.20;99.90;;;;;;5070046;28;20354;-66
2021/07/15 13:34:22;;;;;;;;;;;15.10;99.90;;;;;;5070086;28;19948;-66
2021/07/15 13:36:54;;;;;;;;;;;15.10;99.90;;;;;;5070029;28;19913;-66
2021/07/15 13:39:40;;;;;;;;;;;15.10;99.90;;;;;;5069573;28;19934;-66
2021/07/15 13:42:07;;;;;;;;;;;15.10;99.90;;;;;;5070169;28;19917;-67
2021/07/15 13:44:34;;;;;;;;;;;15.10;99.90;;;;;;5068574;28;19924;-67
2021/07/15 13:47:02;;;;;;;;;;;15.20;99.90;;;;;;5069955;28;19924;-66
2021/07/15 13:49:29;;;;;;;;;;;15.20;99.90;;;;;;5069877;28;19954;-67
2021/07/15 13:52:09;;;;;;;;;;;15.20;99.90;;;;;;5069962;28;19916;-66
2021/07/15 13:54:37;;;;;;;;;;;15.20;99.90;;;;;;5069612;28;20294;-66
2021/07/15 13:57:05;;;;;;;;;;;15.30;99.90;;;;;;5070000;28;19962;-66
2021/07/15 13:59:33;;;;;;;;;;;15.30;99.90;;;;;;5069703;28;19952;-66
2021/07/15 14:02:17;;;;;;;;;;;15.30;99.90;;;;;;5069703;28;19912;-67
2021/07/15 14:04:45;;;;;;;;;;;15.30;99.90;;;;;;5069912;28;19944;-66
2021/07/15 14:07:13;;;;;;;;;;;15.30;99.90;;;;;;5071692;28;19920;-66
2021/07/15 14:09:40;;;;;;;;;;;15.30;99.90;;;;;;5073162;28;19971;-66
2021/07/15 14:12:11;;;;;;;;;;;15.40;99.90;;;;;;5073275;28;19977;-66
2021/07/15 14:14:46;;;;;;;;;;;15.30;99.90;;;;;;5073471;28;20402;-66
2021/07/15 14:17:26;;;;;;;;;;;15.30;99.90;;;;;;5073350;28;19916;-66
2021/07/15 14:19:54;;;;;;;;;;;15.30;99.90;;;;;;5072807;28;19984;-66
2021/07/15 14:22:21;;;;;;;;;;;15.30;99.90;;;;;;5073321;28;19918;-67
2021/07/15 14:24:48;;;;;;;;;;;15.20;99.90;;;;;;5073286;28;19912;-66
2021/07/15 14:27:16;;;;;;;;;;;15.10;99.90;;;;;;5073109;28;19908;-66
2021/07/15 14:29:44;;;;;;;;;;;15.00;99.90;;;;;;5072725;28;19922;-67